Time;durP1;ratioP1;P1;durP2;ratioP2;P2;SDS_P1;SDS_P2;PMS_P1;PMS_P2;Temp;Humidity;BMP_temperature;BMP_pressure;BME280_temperature;BME280_humidity;BME280_pressure;Samples;Min_cycle;Max_cycle;Signal;HPM_P1;HPM_P2
2021/06/26 00:00:52;;;;;;;6.77;1.95;;;;;;;;;;359291;147;857595;-60
2021/06/26 00:01:54;;;;;;;8.21;2.24;;;;;;;;;;359174;147;857954;-60
2021/06/26 00:02:55;;;;;;;6.43;1.64;;;;;;;;;;361163;145;858293;-59
2021/06/26 00:03:57;;;;;;;9.82;2.29;;;;;;;;;;359503;146;857285;-60
2021/06/26 00:04:59;;;;;;;6.01;1.53;;;;;;;;;;359325;147;857342;-59
2021/06/26 00:06:00;;;;;;;5.27;1.80;;;;;;;;;;363335;147;857413;-60
2021/06/26 00:07:02;;;;;;;5.75;1.43;;;;;;;;;;361232;147;857431;-60
2021/06/26 00:08:04;;;;;;;8.99;1.69;;;;;;;;;;360127;147;857445;-61
2021/06/26 00:09:05;;;;;;;9.99;1.76;;;;;;;;;;360118;147;866465;-59
2021/06/26 00:10:08;;;;;;;14.58;2.11;;;;;;;;;;359371;146;860152;-58
2021/06/26 00:11:10;;;;;;;15.78;2.20;;;;;;;;;;359215;147;857357;-59
2021/06/26 00:12:12;;;;;;;7.50;2.20;;;;;;;;;;359230;150;858538;-59
2021/06/26 00:13:14;;;;;;;10.29;2.14;;;;;;;;;;361606;145;866726;-58
2021/06/26 00:14:16;;;;;;;13.96;2.43;;;;;;;;;;362349;146;857719;-58
2021/06/26 00:15:17;;;;;;;11.60;3.07;;;;;;;;;;359329;150;857367;-59
2021/06/26 00:16:19;;;;;;;15.59;2.25;;;;;;;;;;360189;147;858012;-59
2021/06/26 00:17:21;;;;;;;7.86;1.84;;;;;;;;;;360916;147;857653;-59
2021/06/26 00:18:22;;;;;;;8.51;2.24;;;;;;;;;;359389;150;860445;-59
2021/06/26 00:19:24;;;;;;;5.67;2.13;;;;;;;;;;359372;147;857972;-60
2021/06/26 00:20:26;;;;;;;6.05;2.28;;;;;;;;;;359287;145;857473;-60
2021/06/26 00:21:28;;;;;;;9.49;2.34;;;;;;;;;;359242;146;857576;-59
2021/06/26 00:22:29;;;;;;;6.38;2.59;;;;;;;;;;359196;150;859366;-59
2021/06/26 00:23:31;;;;;;;9.37;2.25;;;;;;;;;;359280;145;859176;-59
2021/06/26 00:24:32;;;;;;;9.94;2.39;;;;;;;;;;360977;147;859202;-59
2021/06/26 00:25:34;;;;;;;6.38;2.22;;;;;;;;;;362360;147;858784;-59
2021/06/26 00:26:35;;;;;;;8.00;2.61;;;;;;;;;;359207;145;857463;-59
2021/06/26 00:27:37;;;;;;;12.88;2.87;;;;;;;;;;359117;147;863270;-59
2021/06/26 00:28:38;;;;;;;13.04;2.48;;;;;;;;;;359249;147;857355;-60
2021/06/26 00:29:40;;;;;;;13.10;2.69;;;;;;;;;;359258;150;857443;-59
2021/06/26 00:30:43;;;;;;;7.73;2.27;;;;;;;;;;359074;147;857486;-60
2021/06/26 00:31:44;;;;;;;6.59;2.86;;;;;;;;;;359006;147;864967;-60
2021/06/26 00:32:46;;;;;;;10.33;3.26;;;;;;;;;;361704;147;857608;-59
2021/06/26 00:33:48;;;;;;;13.94;3.08;;;;;;;;;;363321;147;857579;-60
2021/06/26 00:34:50;;;;;;;8.63;2.59;;;;;;;;;;360678;147;857495;-60
2021/06/26 00:35:51;;;;;;;10.31;3.02;;;;;;;;;;359520;147;857527;-61
2021/06/26 00:36:53;;;;;;;7.65;2.72;;;;;;;;;;359095;147;866720;-60
2021/06/26 00:37:55;;;;;;;5.67;2.56;;;;;;;;;;360949;147;857538;-60
2021/06/26 00:38:56;;;;;;;11.69;2.80;;;;;;;;;;359314;144;866701;-60
2021/06/26 00:39:58;;;;;;;10.70;3.63;;;;;;;;;;359425;147;857512;-60
2021/06/26 00:41:00;;;;;;;11.95;3.25;;;;;;;;;;359152;147;857954;-60
2021/06/26 00:42:02;;;;;;;10.54;3.48;;;;;;;;;;359076;147;865732;-59
2021/06/26 00:43:04;;;;;;;8.28;2.47;;;;;;;;;;359148;150;859691;-60
2021/06/26 00:44:06;;;;;;;9.59;2.90;;;;;;;;;;360332;147;865021;-60
2021/06/26 00:45:09;;;;;;;16.17;3.07;;;;;;;;;;359685;147;857464;-59
2021/06/26 00:46:10;;;;;;;12.05;3.27;;;;;;;;;;359113;147;857313;-59
2021/06/26 00:47:12;;;;;;;10.88;3.28;;;;;;;;;;359130;150;865335;-58
2021/06/26 00:48:14;;;;;;;7.69;2.24;;;;;;;;;;359072;146;865033;-60
2021/06/26 00:49:16;;;;;;;10.87;2.74;;;;;;;;;;361615;147;859171;-58
2021/06/26 00:50:20;;;;;;;10.96;2.86;;;;;;;;;;364618;147;858018;-58
2021/06/26 00:51:22;;;;;;;7.53;2.59;;;;;;;;;;359848;148;866611;-60
2021/06/26 00:52:23;;;;;;;8.20;2.26;;;;;;;;;;359848;146;864751;-60
2021/06/26 00:53:25;;;;;;;11.24;2.90;;;;;;;;;;365391;147;859657;-60
2021/06/26 00:54:26;;;;;;;10.23;2.63;;;;;;;;;;361570;147;858767;-59
2021/06/26 00:55:29;;;;;;;9.66;2.68;;;;;;;;;;359559;147;857336;-59
2021/06/26 00:56:31;;;;;;;8.69;2.69;;;;;;;;;;359232;147;864870;-59
2021/06/26 00:57:33;;;;;;;9.49;2.53;;;;;;;;;;359382;147;864883;-60
2021/06/26 00:58:35;;;;;;;7.37;2.98;;;;;;;;;;359895;145;857475;-60
2021/06/26 00:59:37;;;;;;;11.27;3.00;;;;;;;;;;359871;146;857430;-59
2021/06/26 01:00:40;;;;;;;11.71;3.32;;;;;;;;;;359041;150;857374;-60
2021/06/26 01:01:41;;;;;;;12.39;2.85;;;;;;;;;;360023;145;859296;-60
2021/06/26 01:02:43;;;;;;;14.24;3.04;;;;;;;;;;359907;147;858035;-61
2021/06/26 01:03:45;;;;;;;8.15;3.01;;;;;;;;;;359225;146;858010;-60
2021/06/26 01:04:47;;;;;;;12.69;3.39;;;;;;;;;;359100;148;857528;-59
2021/06/26 01:05:48;;;;;;;9.54;3.35;;;;;;;;;;360177;145;857636;-60
2021/06/26 01:06:50;;;;;;;10.71;3.11;;;;;;;;;;359098;147;859907;-60
2021/06/26 01:07:53;;;;;;;10.60;3.27;;;;;;;;;;363588;147;858416;-60
2021/06/26 01:08:56;;;;;;;9.61;3.32;;;;;;;;;;362174;144;860587;-60
2021/06/26 01:09:57;;;;;;;11.10;2.94;;;;;;;;;;361259;145;857379;-59
2021/06/26 01:10:59;;;;;;;8.52;3.05;;;;;;;;;;365903;147;857505;-60
2021/06/26 01:12:00;;;;;;;9.90;3.35;;;;;;;;;;365699;145;865566;-60
2021/06/26 01:13:03;;;;;;;8.43;2.91;;;;;;;;;;359212;146;864836;-59
2021/06/26 01:14:04;;;;;;;9.11;2.82;;;;;;;;;;359508;147;857409;-60
2021/06/26 01:15:07;;;;;;;10.49;3.91;;;;;;;;;;359195;147;857513;-60
2021/06/26 01:16:08;;;;;;;9.81;3.19;;;;;;;;;;360147;145;864744;-60
2021/06/26 01:17:10;;;;;;;11.23;3.58;;;;;;;;;;359938;147;859012;-59
2021/06/26 01:18:11;;;;;;;7.52;2.59;;;;;;;;;;361150;147;857499;-60
2021/06/26 01:19:13;;;;;;;11.11;3.19;;;;;;;;;;363526;147;857386;-60
2021/06/26 01:20:16;;;;;;;12.88;3.15;;;;;;;;;;357410;147;857452;-60
2021/06/26 01:21:18;;;;;;;9.84;3.13;;;;;;;;;;361947;148;857278;-59
2021/06/26 01:22:23;;;;;;;10.63;3.02;;;;;;;;;;363419;148;857411;-58
2021/06/26 01:23:25;;;;;;;10.46;2.94;;;;;;;;;;359271;147;857520;-60
2021/06/26 01:24:27;;;;;;;10.31;3.07;;;;;;;;;;356895;147;857497;-59
2021/06/26 01:25:29;;;;;;;14.80;3.49;;;;;;;;;;356689;151;857463;-59
2021/06/26 01:26:35;;;;;;;7.94;2.82;;;;;;;;;;357200;147;866057;-59
2021/06/26 01:27:36;;;;;;;8.00;3.19;;;;;;;;;;349238;151;859009;-58
2021/06/26 01:28:38;;;;;;;6.66;2.91;;;;;;;;;;343960;156;859545;-60
2021/06/26 01:29:42;;;;;;;9.67;3.02;;;;;;;;;;343756;153;857413;-60
2021/06/26 01:30:45;;;;;;;8.16;2.86;;;;;;;;;;347653;153;865451;-59
2021/06/26 01:31:46;;;;;;;6.41;2.70;;;;;;;;;;345612;154;857517;-59
2021/06/26 01:32:48;;;;;;;7.04;2.80;;;;;;;;;;347790;153;857938;-59
2021/06/26 01:33:49;;;;;;;9.69;2.94;;;;;;;;;;346815;151;857593;-58
2021/06/26 01:34:51;;;;;;;12.16;2.77;;;;;;;;;;346311;151;857553;-62
2021/06/26 01:35:53;;;;;;;8.17;2.98;;;;;;;;;;347983;153;858457;-57
2021/06/26 01:36:54;;;;;;;8.80;2.97;;;;;;;;;;345814;151;865840;-57
2021/06/26 01:37:56;;;;;;;6.23;2.94;;;;;;;;;;345482;152;868346;-57
2021/06/26 01:38:58;;;;;;;9.17;3.25;;;;;;;;;;345414;156;860021;-59
2021/06/26 01:40:00;;;;;;;7.97;2.98;;;;;;;;;;345764;154;858864;-60
2021/06/26 01:41:01;;;;;;;8.06;3.14;;;;;;;;;;344933;152;858743;-59
2021/06/26 01:42:03;;;;;;;10.53;4.16;;;;;;;;;;346012;151;857424;-58
2021/06/26 01:43:05;;;;;;;6.55;2.86;;;;;;;;;;345405;154;857390;-58
2021/06/26 01:44:06;;;;;;;12.31;3.42;;;;;;;;;;345913;151;857435;-58
2021/06/26 01:45:08;;;;;;;11.24;3.71;;;;;;;;;;347069;151;857474;-58
2021/06/26 01:46:11;;;;;;;12.33;3.42;;;;;;;;;;346713;153;857448;-58
2021/06/26 01:47:12;;;;;;;12.27;3.38;;;;;;;;;;348025;151;866106;-59
2021/06/26 01:48:14;;;;;;;7.89;2.74;;;;;;;;;;346214;151;857500;-58
2021/06/26 01:49:17;;;;;;;14.05;3.08;;;;;;;;;;345368;156;857457;-61
2021/06/26 01:50:19;;;;;;;9.63;3.26;;;;;;;;;;345259;156;857450;-58
2021/06/26 01:51:21;;;;;;;8.25;2.75;;;;;;;;;;345427;151;858861;-58
2021/06/26 01:52:22;;;;;;;10.62;3.05;;;;;;;;;;345281;152;857554;-57
2021/06/26 01:53:24;;;;;;;12.91;3.14;;;;;;;;;;345488;154;857395;-59
2021/06/26 01:54:26;;;;;;;10.49;3.23;;;;;;;;;;349048;151;857461;-59
2021/06/26 01:55:27;;;;;;;13.00;3.11;;;;;;;;;;347409;151;859286;-58
2021/06/26 01:56:29;;;;;;;9.71;3.14;;;;;;;;;;349490;153;859096;-58
2021/06/26 01:57:30;;;;;;;12.39;3.16;;;;;;;;;;345445;151;864906;-58
2021/06/26 01:58:32;;;;;;;7.84;2.50;;;;;;;;;;345928;151;857306;-58
2021/06/26 01:59:34;;;;;;;9.72;2.63;;;;;;;;;;345519;152;857405;-58
2021/06/26 02:00:36;;;;;;;12.92;3.00;;;;;;;;;;345839;153;866219;-59
2021/06/26 02:01:38;;;;;;;7.90;2.80;;;;;;;;;;346548;151;858144;-59
2021/06/26 02:02:39;;;;;;;8.20;2.69;;;;;;;;;;346600;151;860409;-59
2021/06/26 02:03:41;;;;;;;8.14;2.93;;;;;;;;;;348158;154;857331;-58
2021/06/26 02:04:42;;;;;;;9.51;2.71;;;;;;;;;;347595;151;857446;-58
2021/06/26 02:05:44;;;;;;;8.92;2.50;;;;;;;;;;338598;155;859731;-59
2021/06/26 02:06:46;;;;;;;9.51;2.94;;;;;;;;;;349998;154;866047;-59
2021/06/26 02:07:47;;;;;;;9.91;2.58;;;;;;;;;;360609;148;858940;-59
2021/06/26 02:08:49;;;;;;;8.33;2.51;;;;;;;;;;358346;147;859256;-59
2021/06/26 02:09:50;;;;;;;7.03;2.55;;;;;;;;;;356653;147;857901;-59
2021/06/26 02:10:52;;;;;;;10.63;2.33;;;;;;;;;;356800;148;857556;-59
2021/06/26 02:11:54;;;;;;;12.09;2.71;;;;;;;;;;358183;147;857549;-59
2021/06/26 02:12:55;;;;;;;13.71;2.79;;;;;;;;;;358289;147;859205;-58
2021/06/26 02:13:57;;;;;;;11.68;2.71;;;;;;;;;;357035;148;857990;-59
2021/06/26 02:14:59;;;;;;;8.33;2.56;;;;;;;;;;358104;147;857498;-59
2021/06/26 02:16:00;;;;;;;6.74;3.09;;;;;;;;;;356564;148;864780;-59
2021/06/26 02:17:02;;;;;;;7.45;2.91;;;;;;;;;;360066;147;857423;-59
2021/06/26 02:18:03;;;;;;;7.88;2.70;;;;;;;;;;359174;148;857442;-59
2021/06/26 02:19:05;;;;;;;10.21;2.91;;;;;;;;;;360181;147;866480;-59
2021/06/26 02:20:08;;;;;;;5.19;2.69;;;;;;;;;;359900;147;857471;-59
2021/06/26 02:21:09;;;;;;;8.19;2.69;;;;;;;;;;360361;147;857612;-59
2021/06/26 02:22:11;;;;;;;6.50;2.53;;;;;;;;;;358942;145;859145;-58
2021/06/26 02:23:12;;;;;;;7.24;2.34;;;;;;;;;;359675;145;857576;-59
2021/06/26 02:24:14;;;;;;;7.53;2.61;;;;;;;;;;359067;146;859783;-59
2021/06/26 02:25:16;;;;;;;8.48;2.68;;;;;;;;;;360970;147;857367;-59
2021/06/26 02:26:19;;;;;;;7.28;2.54;;;;;;;;;;359486;144;865742;-58
2021/06/26 02:27:21;;;;;;;7.04;2.21;;;;;;;;;;359642;146;857438;-58
2021/06/26 02:28:22;;;;;;;7.81;2.39;;;;;;;;;;359006;150;865404;-60
2021/06/26 02:29:24;;;;;;;7.26;2.26;;;;;;;;;;359777;145;860149;-60
2021/06/26 02:30:26;;;;;;;6.99;2.35;;;;;;;;;;360824;147;858806;-59
2021/06/26 02:31:27;;;;;;;3.96;2.09;;;;;;;;;;358991;150;858227;-59
2021/06/26 02:32:29;;;;;;;10.43;2.60;;;;;;;;;;359113;145;858825;-59
2021/06/26 02:33:31;;;;;;;5.96;2.34;;;;;;;;;;360333;145;857777;-58
2021/06/26 02:34:32;;;;;;;11.08;2.22;;;;;;;;;;360613;147;864854;-59
2021/06/26 02:35:34;;;;;;;4.88;2.01;;;;;;;;;;363384;147;857450;-59
2021/06/26 02:36:36;;;;;;;6.98;2.21;;;;;;;;;;358885;147;858391;-58
2021/06/26 02:37:39;;;;;;;8.45;2.34;;;;;;;;;;358878;147;859267;-58
2021/06/26 02:38:40;;;;;;;8.57;2.55;;;;;;;;;;358981;147;858667;-58
2021/06/26 02:39:42;;;;;;;6.75;2.10;;;;;;;;;;359311;145;865024;-58
2021/06/26 02:40:43;;;;;;;7.89;2.24;;;;;;;;;;359728;147;857434;-58
2021/06/26 02:41:45;;;;;;;4.61;2.24;;;;;;;;;;359057;147;866043;-58
2021/06/26 02:42:47;;;;;;;9.37;2.52;;;;;;;;;;359048;148;866477;-58
2021/06/26 02:43:49;;;;;;;10.00;2.31;;;;;;;;;;360215;144;859654;-59
2021/06/26 02:44:50;;;;;;;7.47;2.04;;;;;;;;;;360608;144;859744;-58
2021/06/26 02:45:52;;;;;;;5.44;1.98;;;;;;;;;;359447;144;859266;-59
2021/06/26 02:46:54;;;;;;;6.35;2.15;;;;;;;;;;359310;145;857166;-58
2021/06/26 02:47:56;;;;;;;10.52;2.26;;;;;;;;;;359686;146;857506;-60
2021/06/26 02:48:58;;;;;;;5.36;2.21;;;;;;;;;;362982;145;859106;-58
2021/06/26 02:49:59;;;;;;;7.43;2.48;;;;;;;;;;359356;147;866116;-59
2021/06/26 02:51:01;;;;;;;8.33;2.44;;;;;;;;;;360713;145;859142;-58
2021/06/26 02:52:05;;;;;;;11.94;2.65;;;;;;;;;;358923;146;858310;-59
2021/06/26 02:53:06;;;;;;;7.14;2.46;;;;;;;;;;359051;150;856734;-59
2021/06/26 02:54:08;;;;;;;4.85;2.54;;;;;;;;;;359743;144;859022;-59
2021/06/26 02:55:10;;;;;;;8.91;2.45;;;;;;;;;;359433;147;857821;-58
2021/06/26 02:56:12;;;;;;;6.82;2.18;;;;;;;;;;358990;147;857571;-59
2021/06/26 02:57:14;;;;;;;5.56;2.34;;;;;;;;;;359185;147;857525;-59
2021/06/26 02:58:16;;;;;;;5.60;2.50;;;;;;;;;;360182;146;857394;-59
2021/06/26 02:59:17;;;;;;;10.07;2.43;;;;;;;;;;361242;145;857940;-59
2021/06/26 03:00:20;;;;;;;6.95;2.71;;;;;;;;;;360406;147;859229;-59
2021/06/26 03:01:22;;;;;;;9.58;3.03;;;;;;;;;;360310;144;857674;-59
2021/06/26 03:02:26;;;;;;;6.78;2.84;;;;;;;;;;359887;145;858340;-59
2021/06/26 03:03:27;;;;;;;7.87;2.63;;;;;;;;;;360030;145;857458;-61
2021/06/26 03:04:28;;;;;;;11.10;2.61;;;;;;;;;;358851;147;860242;-60
2021/06/26 03:05:30;;;;;;;7.21;2.36;;;;;;;;;;359888;145;857399;-61
2021/06/26 03:06:33;;;;;;;9.41;2.84;;;;;;;;;;358789;148;858059;-61
2021/06/26 03:07:35;;;;;;;9.75;2.70;;;;;;;;;;362788;145;858873;-60
2021/06/26 03:08:36;;;;;;;6.30;2.82;;;;;;;;;;359495;145;857902;-60
2021/06/26 03:09:38;;;;;;;7.74;2.40;;;;;;;;;;362888;145;857394;-57
2021/06/26 03:10:41;;;;;;;11.22;2.61;;;;;;;;;;358861;150;857334;-58
2021/06/26 03:11:42;;;;;;;9.24;2.51;;;;;;;;;;359902;145;864950;-58
2021/06/26 03:12:44;;;;;;;11.33;2.59;;;;;;;;;;359509;147;857891;-59
2021/06/26 03:13:46;;;;;;;7.18;2.85;;;;;;;;;;359252;145;866802;-58
2021/06/26 03:14:47;;;;;;;6.24;2.51;;;;;;;;;;359182;144;866709;-58
2021/06/26 03:15:49;;;;;;;9.30;2.79;;;;;;;;;;359350;146;858947;-58
2021/06/26 03:16:50;;;;;;;10.49;2.81;;;;;;;;;;355521;150;859531;-58
2021/06/26 03:17:52;;;;;;;10.91;2.86;;;;;;;;;;353623;150;865941;-57
2021/06/26 03:18:53;;;;;;;7.91;2.55;;;;;;;;;;360084;147;857420;-58
2021/06/26 03:19:55;;;;;;;9.99;2.78;;;;;;;;;;358751;145;857504;-57
2021/06/26 03:20:57;;;;;;;12.06;3.04;;;;;;;;;;356709;148;857321;-58
2021/06/26 03:21:58;;;;;;;9.81;2.20;;;;;;;;;;358740;147;864784;-58
2021/06/26 03:23:00;;;;;;;4.69;2.34;;;;;;;;;;358332;147;857396;-57
2021/06/26 03:24:02;;;;;;;7.54;2.39;;;;;;;;;;357107;148;866268;-56
2021/06/26 03:25:04;;;;;;;7.63;2.58;;;;;;;;;;357542;147;865327;-60
2021/06/26 03:26:06;;;;;;;9.16;2.99;;;;;;;;;;356740;148;864865;-58
2021/06/26 03:27:07;;;;;;;8.19;2.91;;;;;;;;;;357333;148;857308;-59
2021/06/26 03:28:09;;;;;;;7.09;3.24;;;;;;;;;;357195;148;859147;-59
2021/06/26 03:29:11;;;;;;;9.39;3.37;;;;;;;;;;358353;147;858824;-59
2021/06/26 03:30:13;;;;;;;11.43;2.74;;;;;;;;;;357921;147;857421;-59
2021/06/26 03:31:15;;;;;;;10.47;2.99;;;;;;;;;;357927;148;857535;-58
2021/06/26 03:32:16;;;;;;;9.64;3.36;;;;;;;;;;357827;147;859259;-58
2021/06/26 03:33:18;;;;;;;7.71;2.64;;;;;;;;;;357787;147;857821;-61
2021/06/26 03:34:20;;;;;;;12.42;3.11;;;;;;;;;;356966;150;865755;-60
2021/06/26 03:35:21;;;;;;;7.38;3.14;;;;;;;;;;359119;148;858269;-61
2021/06/26 03:36:24;;;;;;;9.91;2.79;;;;;;;;;;356567;147;866211;-61
2021/06/26 03:37:26;;;;;;;10.82;2.71;;;;;;;;;;357803;147;859224;-59
2021/06/26 03:38:27;;;;;;;11.12;2.62;;;;;;;;;;358159;148;858988;-60
2021/06/26 03:39:29;;;;;;;9.14;2.70;;;;;;;;;;357338;147;866239;-59
2021/06/26 03:40:32;;;;;;;9.26;3.14;;;;;;;;;;359216;147;859864;-60
2021/06/26 03:41:34;;;;;;;7.86;2.77;;;;;;;;;;358414;150;858789;-60
2021/06/26 03:42:36;;;;;;;8.99;2.82;;;;;;;;;;356748;149;864904;-63
2021/06/26 03:43:37;;;;;;;10.99;2.98;;;;;;;;;;357778;147;866614;-61
2021/06/26 03:44:39;;;;;;;7.62;2.96;;;;;;;;;;357213;148;858997;-60
2021/06/26 03:45:41;;;;;;;10.71;3.44;;;;;;;;;;356962;148;866522;-63
2021/06/26 03:46:44;;;;;;;9.37;2.84;;;;;;;;;;358027;147;860356;-60
2021/06/26 03:47:46;;;;;;;8.39;3.02;;;;;;;;;;356413;147;858500;-59
2021/06/26 03:48:47;;;;;;;10.00;3.16;;;;;;;;;;357434;150;858072;-60
2021/06/26 03:49:49;;;;;;;10.19;2.93;;;;;;;;;;356487;147;857480;-59
2021/06/26 03:50:52;;;;;;;9.32;2.91;;;;;;;;;;356513;147;857712;-59
2021/06/26 03:51:53;;;;;;;10.37;3.36;;;;;;;;;;359945;148;864012;-60
2021/06/26 03:52:55;;;;;;;10.54;3.14;;;;;;;;;;359406;148;858443;-60
2021/06/26 03:53:56;;;;;;;11.91;3.08;;;;;;;;;;357201;147;859304;-61
2021/06/26 03:54:58;;;;;;;11.10;3.23;;;;;;;;;;356831;147;857784;-60
2021/06/26 03:56:00;;;;;;;11.21;3.69;;;;;;;;;;357259;148;857398;-60
2021/06/26 03:57:02;;;;;;;6.73;3.19;;;;;;;;;;357655;147;866809;-60
2021/06/26 03:58:03;;;;;;;7.89;2.68;;;;;;;;;;356922;147;859369;-61
2021/06/26 03:59:05;;;;;;;11.89;3.26;;;;;;;;;;357524;148;857449;-62
2021/06/26 04:00:07;;;;;;;11.33;3.25;;;;;;;;;;359284;148;857394;-60
2021/06/26 04:01:08;;;;;;;7.09;2.94;;;;;;;;;;356539;147;864973;-60
2021/06/26 04:02:10;;;;;;;9.86;3.28;;;;;;;;;;352301;151;857988;-59
2021/06/26 04:03:12;;;;;;;7.03;3.24;;;;;;;;;;353682;151;865205;-61
2021/06/26 04:04:14;;;;;;;8.13;3.24;;;;;;;;;;357517;147;857478;-59
2021/06/26 04:05:15;;;;;;;10.62;3.06;;;;;;;;;;357634;147;858767;-59
2021/06/26 04:06:17;;;;;;;10.17;3.75;;;;;;;;;;357367;148;857356;-59
2021/06/26 04:07:19;;;;;;;10.45;3.42;;;;;;;;;;356905;147;857363;-60
2021/06/26 04:08:20;;;;;;;7.21;2.95;;;;;;;;;;356508;147;865849;-60
2021/06/26 04:09:22;;;;;;;8.16;3.44;;;;;;;;;;357136;147;864037;-60
2021/06/26 04:10:26;;;;;;;8.85;2.90;;;;;;;;;;357430;148;858450;-60
2021/06/26 04:11:27;;;;;;;9.20;3.17;;;;;;;;;;356913;147;858632;-58
2021/06/26 04:12:29;;;;;;;11.40;3.29;;;;;;;;;;358157;147;858255;-59
2021/06/26 04:13:31;;;;;;;7.89;3.27;;;;;;;;;;356945;150;857333;-60
2021/06/26 04:14:33;;;;;;;11.66;3.14;;;;;;;;;;358334;147;857469;-59
2021/06/26 04:15:34;;;;;;;7.42;3.10;;;;;;;;;;358513;147;857580;-58
2021/06/26 04:16:37;;;;;;;5.76;2.96;;;;;;;;;;361699;148;866330;-58
2021/06/26 04:17:39;;;;;;;13.09;3.26;;;;;;;;;;356707;148;859058;-58
2021/06/26 04:18:40;;;;;;;10.76;3.34;;;;;;;;;;356579;147;858917;-59
2021/06/26 04:19:42;;;;;;;8.19;3.22;;;;;;;;;;356775;151;858781;-59
2021/06/26 04:20:45;;;;;;;9.25;2.96;;;;;;;;;;357789;150;857573;-59
2021/06/26 04:21:46;;;;;;;10.08;3.36;;;;;;;;;;359388;144;857522;-60
2021/06/26 04:22:48;;;;;;;7.61;3.51;;;;;;;;;;359508;147;858499;-59
2021/06/26 04:23:50;;;;;;;7.44;3.32;;;;;;;;;;358951;150;865414;-58
2021/06/26 04:24:51;;;;;;;6.28;3.66;;;;;;;;;;359910;147;865042;-58
2021/06/26 04:25:53;;;;;;;17.36;3.44;;;;;;;;;;359731;146;856642;-58
2021/06/26 04:26:55;;;;;;;11.57;3.91;;;;;;;;;;358835;150;865599;-59
2021/06/26 04:27:58;;;;;;;7.16;3.16;;;;;;;;;;358879;145;865930;-59
2021/06/26 04:29:00;;;;;;;6.83;3.03;;;;;;;;;;359952;145;860038;-59
2021/06/26 04:30:02;;;;;;;7.48;3.21;;;;;;;;;;360426;145;857427;-62
2021/06/26 04:31:04;;;;;;;10.45;3.29;;;;;;;;;;359098;147;866712;-60
2021/06/26 04:32:06;;;;;;;10.84;3.38;;;;;;;;;;361691;144;858667;-59
2021/06/26 04:33:08;;;;;;;12.76;3.44;;;;;;;;;;360133;145;859212;-60
2021/06/26 04:34:10;;;;;;;7.85;3.49;;;;;;;;;;360117;145;857485;-59
2021/06/26 04:35:14;;;;;;;8.42;3.38;;;;;;;;;;359086;144;857472;-59
2021/06/26 04:36:17;;;;;;;7.77;3.34;;;;;;;;;;359972;145;857506;-58
2021/06/26 04:37:19;;;;;;;6.12;3.40;;;;;;;;;;360132;147;857424;-59
2021/06/26 04:38:24;;;;;;;7.85;2.96;;;;;;;;;;365185;145;857352;-59
2021/06/26 04:39:25;;;;;;;9.57;3.60;;;;;;;;;;360345;145;864789;-59
2021/06/26 04:40:28;;;;;;;8.41;3.61;;;;;;;;;;359053;147;861894;-59
2021/06/26 04:41:30;;;;;;;10.74;3.49;;;;;;;;;;359011;147;857474;-60
2021/06/26 04:42:32;;;;;;;7.60;3.24;;;;;;;;;;359194;144;857619;-60
2021/06/26 04:43:33;;;;;;;12.91;3.72;;;;;;;;;;360861;144;859726;-60
2021/06/26 04:44:35;;;;;;;9.80;3.34;;;;;;;;;;356215;150;864289;-61
2021/06/26 04:45:36;;;;;;;11.26;4.21;;;;;;;;;;356388;147;858758;-59
2021/06/26 04:46:38;;;;;;;8.91;3.63;;;;;;;;;;359783;147;857555;-59
2021/06/26 04:47:40;;;;;;;8.49;3.96;;;;;;;;;;359972;147;864751;-59
2021/06/26 04:48:42;;;;;;;6.93;3.87;;;;;;;;;;361006;145;857463;-62
2021/06/26 04:49:43;;;;;;;10.56;3.33;;;;;;;;;;362129;147;857452;-58
2021/06/26 04:50:45;;;;;;;12.06;3.66;;;;;;;;;;359687;147;860845;-61
2021/06/26 04:51:47;;;;;;;9.57;3.35;;;;;;;;;;358959;150;865304;-61
2021/06/26 04:52:49;;;;;;;11.93;3.54;;;;;;;;;;358947;147;859994;-58
2021/06/26 04:53:50;;;;;;;14.50;4.09;;;;;;;;;;360456;147;857714;-60
2021/06/26 04:54:52;;;;;;;20.06;4.02;;;;;;;;;;359119;150;859266;-58
2021/06/26 04:55:53;;;;;;;7.03;3.52;;;;;;;;;;363679;145;858425;-58
2021/06/26 04:56:55;;;;;;;9.16;3.63;;;;;;;;;;358961;147;863883;-57
2021/06/26 04:57:57;;;;;;;9.42;3.70;;;;;;;;;;360288;147;866199;-59
2021/06/26 04:58:58;;;;;;;11.89;3.65;;;;;;;;;;362252;147;865909;-60
2021/06/26 05:00:00;;;;;;;8.92;3.70;;;;;;;;;;360577;144;857345;-57
2021/06/26 05:01:02;;;;;;;10.79;3.82;;;;;;;;;;359863;144;857492;-57
2021/06/26 05:02:04;;;;;;;10.26;3.47;;;;;;;;;;360271;147;857562;-58
2021/06/26 05:03:05;;;;;;;11.00;3.82;;;;;;;;;;359168;149;857924;-58
2021/06/26 05:04:07;;;;;;;11.47;3.62;;;;;;;;;;361041;145;857392;-59
2021/06/26 05:05:09;;;;;;;9.44;3.64;;;;;;;;;;361815;147;866079;-59
2021/06/26 05:06:11;;;;;;;8.66;3.69;;;;;;;;;;360388;147;859390;-59
2021/06/26 05:07:13;;;;;;;8.14;3.59;;;;;;;;;;359089;145;858033;-62
2021/06/26 05:08:14;;;;;;;10.88;3.94;;;;;;;;;;360104;147;857589;-57
2021/06/26 05:09:16;;;;;;;10.70;3.71;;;;;;;;;;359099;146;866577;-59
2021/06/26 05:10:18;;;;;;;11.28;3.81;;;;;;;;;;359406;147;866687;-60
2021/06/26 05:11:19;;;;;;;8.35;3.69;;;;;;;;;;360821;147;866265;-60
2021/06/26 05:12:21;;;;;;;12.59;4.11;;;;;;;;;;360077;147;858666;-61
2021/06/26 05:13:22;;;;;;;10.73;4.02;;;;;;;;;;347390;150;857957;-60
2021/06/26 05:14:24;;;;;;;9.18;3.95;;;;;;;;;;361595;146;858305;-60
2021/06/26 05:15:27;;;;;;;14.06;3.96;;;;;;;;;;359356;147;858015;-59
2021/06/26 05:16:30;;;;;;;12.79;3.81;;;;;;;;;;359004;149;857487;-59
2021/06/26 05:17:32;;;;;;;10.48;4.13;;;;;;;;;;359209;147;858483;-63
2021/06/26 05:18:34;;;;;;;7.95;3.63;;;;;;;;;;360461;147;865016;-57
2021/06/26 05:19:35;;;;;;;10.26;3.77;;;;;;;;;;359265;147;857463;-59
2021/06/26 05:20:37;;;;;;;7.68;3.78;;;;;;;;;;359057;147;857461;-60
2021/06/26 05:21:39;;;;;;;16.67;4.38;;;;;;;;;;357287;147;863809;-58
2021/06/26 05:22:41;;;;;;;11.81;4.41;;;;;;;;;;357117;148;857429;-59
2021/06/26 05:23:42;;;;;;;12.39;4.19;;;;;;;;;;356699;148;859131;-59
2021/06/26 05:24:44;;;;;;;10.05;4.13;;;;;;;;;;356675;147;858176;-59
2021/06/26 05:25:46;;;;;;;11.89;4.14;;;;;;;;;;357349;147;867480;-59
2021/06/26 05:26:48;;;;;;;9.97;3.61;;;;;;;;;;357165;148;857545;-58
2021/06/26 05:27:49;;;;;;;11.14;4.02;;;;;;;;;;358551;147;857667;-58
2021/06/26 05:28:51;;;;;;;11.24;3.58;;;;;;;;;;357898;147;857661;-59
2021/06/26 05:29:52;;;;;;;8.74;4.35;;;;;;;;;;357206;148;857674;-58
2021/06/26 05:30:56;;;;;;;9.81;4.06;;;;;;;;;;356455;147;858132;-58
2021/06/26 05:31:57;;;;;;;7.24;3.37;;;;;;;;;;357842;147;857377;-58
2021/06/26 05:32:59;;;;;;;12.22;3.73;;;;;;;;;;356973;147;857543;-58
2021/06/26 05:34:01;;;;;;;11.43;3.96;;;;;;;;;;357181;150;859716;-59
2021/06/26 05:35:03;;;;;;;10.00;4.33;;;;;;;;;;357423;150;865096;-58
2021/06/26 05:36:05;;;;;;;8.97;3.69;;;;;;;;;;358597;147;856586;-58
2021/06/26 05:37:06;;;;;;;12.95;3.86;;;;;;;;;;362223;148;856351;-59
2021/06/26 05:38:08;;;;;;;12.27;4.26;;;;;;;;;;356913;150;864281;-59
2021/06/26 05:39:09;;;;;;;11.94;3.87;;;;;;;;;;357083;147;858719;-58
2021/06/26 05:40:12;;;;;;;11.24;4.12;;;;;;;;;;356877;148;857476;-60
2021/06/26 05:41:13;;;;;;;12.10;3.96;;;;;;;;;;356825;151;864986;-60
2021/06/26 05:42:15;;;;;;;7.66;4.28;;;;;;;;;;357243;147;857950;-61
2021/06/26 05:43:17;;;;;;;12.04;3.76;;;;;;;;;;357549;147;859694;-59
2021/06/26 05:44:18;;;;;;;6.81;3.77;;;;;;;;;;356813;150;857310;-59
2021/06/26 05:45:20;;;;;;;13.73;4.41;;;;;;;;;;357201;147;857447;-60
2021/06/26 05:46:23;;;;;;;8.65;4.26;;;;;;;;;;359084;147;857551;-59
2021/06/26 05:47:25;;;;;;;10.81;4.39;;;;;;;;;;356857;151;859148;-59
2021/06/26 05:48:26;;;;;;;13.98;4.65;;;;;;;;;;356730;147;865084;-59
2021/06/26 05:49:28;;;;;;;10.76;4.05;;;;;;;;;;357528;147;857395;-58
2021/06/26 05:50:30;;;;;;;20.03;4.13;;;;;;;;;;357581;147;858063;-58
2021/06/26 05:51:32;;;;;;;15.75;3.84;;;;;;;;;;356774;151;857650;-59
2021/06/26 05:52:33;;;;;;;13.75;4.34;;;;;;;;;;356674;147;858911;-60
2021/06/26 05:53:35;;;;;;;12.11;4.49;;;;;;;;;;351044;149;857615;-58
2021/06/26 05:54:36;;;;;;;14.56;4.23;;;;;;;;;;350113;151;857437;-59
2021/06/26 05:55:38;;;;;;;11.07;4.20;;;;;;;;;;356654;147;857448;-59
2021/06/26 05:56:40;;;;;;;10.40;3.95;;;;;;;;;;357383;147;857376;-60
2021/06/26 05:57:42;;;;;;;9.29;3.46;;;;;;;;;;357100;148;857370;-59
2021/06/26 05:58:43;;;;;;;7.69;4.23;;;;;;;;;;356780;151;857456;-60
2021/06/26 05:59:45;;;;;;;9.89;4.11;;;;;;;;;;356956;147;857949;-60
2021/06/26 06:00:47;;;;;;;10.79;4.17;;;;;;;;;;359594;147;866079;-59
2021/06/26 06:01:48;;;;;;;10.69;4.21;;;;;;;;;;357017;148;865832;-61
2021/06/26 06:02:50;;;;;;;9.55;4.15;;;;;;;;;;356022;147;860106;-62